createdAt,value
2024-05-09T00:00:00.714Z,84.0
2024-05-09T00:01:00.760Z,83.8
2024-05-09T00:02:00.685Z,83.7
2024-05-09T00:03:00.840Z,83.7
2024-05-09T00:04:01.046Z,83.6
2024-05-09T00:05:00.782Z,83.2
2024-05-09T00:06:01.010Z,82.9
2024-05-09T00:07:00.649Z,82.9
2024-05-09T00:08:00.914Z,82.9
2024-05-09T00:09:00.731Z,82.9
2024-05-09T00:10:01.139Z,83.3
2024-05-09T00:11:00.601Z,84.1
2024-05-09T00:12:00.700Z,84.7
2024-05-09T00:13:01.205Z,84.8
2024-05-09T00:14:01.040Z,84.7
2024-05-09T00:15:00.534Z,84.3
2024-05-09T00:16:00.604Z,84.1
2024-05-09T00:17:00.730Z,83.7
2024-05-09T00:18:00.938Z,83.5
2024-05-09T00:19:00.580Z,82.8
2024-05-09T00:20:00.740Z,82.5
2024-05-09T00:21:02.849Z,82.7
2024-05-09T00:22:00.621Z,83.3
2024-05-09T00:23:00.637Z,84.1
2024-05-09T00:24:00.605Z,84.8
2024-05-09T00:25:00.535Z,85.0
2024-05-09T00:26:00.639Z,85.2
2024-05-09T00:27:00.502Z,85.1
2024-05-09T00:28:00.657Z,84.9
2024-05-09T00:29:00.552Z,84.5
2024-05-09T00:30:00.504Z,84.2
2024-05-09T00:31:01.400Z,83.7
2024-05-09T00:32:00.681Z,83.2
2024-05-09T00:33:00.751Z,82.9
2024-05-09T00:34:00.814Z,82.5
2024-05-09T00:35:00.642Z,82.5
2024-05-09T00:36:00.474Z,83.0
2024-05-09T00:37:00.465Z,83.9
2024-05-09T00:38:00.873Z,84.9
2024-05-09T00:39:00.479Z,85.6
2024-05-09T00:40:00.571Z,85.9
2024-05-09T00:41:00.527Z,85.7
2024-05-09T00:42:00.462Z,85.2
2024-05-09T00:43:00.472Z,84.6
2024-05-09T00:44:00.564Z,84.2
2024-05-09T00:45:00.471Z,83.9
2024-05-09T00:46:00.858Z,83.9
2024-05-09T00:47:00.660Z,84.1
2024-05-09T00:48:02.140Z,83.9
2024-05-09T00:49:00.720Z,83.6
2024-05-09T00:50:01.158Z,83.3
2024-05-09T00:51:00.975Z,83.9
2024-05-09T00:52:00.979Z,83.8
2024-05-09T00:53:00.641Z,83.4
2024-05-09T00:54:00.741Z,83.5
2024-05-09T00:55:00.679Z,83.2
2024-05-09T00:56:00.657Z,82.9
2024-05-09T00:57:01.834Z,83.2
2024-05-09T00:58:00.827Z,82.7
2024-05-09T00:59:01.332Z,82.1
2024-05-09T01:00:00.636Z,81.8
2024-05-09T01:01:01.667Z,81.8
2024-05-09T01:02:00.586Z,81.7
2024-05-09T01:03:00.759Z,82.1
2024-05-09T01:04:01.296Z,82.8
2024-05-09T01:05:00.930Z,82.8
2024-05-09T01:06:00.527Z,83.2
2024-05-09T01:07:00.511Z,83.6
2024-05-09T01:08:01.140Z,83.8
2024-05-09T01:09:00.510Z,83.6
2024-05-09T01:10:00.497Z,83.2
2024-05-09T01:11:00.736Z,83.1
2024-05-09T01:12:00.707Z,83.9
2024-05-09T01:13:00.511Z,84.4
2024-05-09T01:14:00.529Z,84.5
2024-05-09T01:15:00.519Z,85.2
2024-05-09T01:16:01.296Z,85.0
2024-05-09T01:17:00.516Z,85.0
2024-05-09T01:18:02.786Z,85.0
2024-05-09T01:19:03.082Z,85.2
2024-05-09T01:20:00.547Z,85.0
2024-05-09T01:21:00.563Z,84.6
2024-05-09T01:22:00.496Z,84.1
2024-05-09T01:23:05.124Z,84.2
2024-05-09T01:24:00.568Z,84.8
2024-05-09T01:25:00.470Z,85.0
2024-05-09T01:26:00.638Z,85.3
2024-05-09T01:27:00.525Z,85.5
2024-05-09T01:28:00.707Z,85.6
2024-05-09T01:29:00.594Z,85.3
2024-05-09T01:30:00.759Z,85.0
2024-05-09T01:31:00.489Z,85.5
2024-05-09T01:32:00.598Z,86.1
2024-05-09T01:33:00.693Z,86.4
2024-05-09T01:34:00.597Z,86.6
2024-05-09T01:35:00.533Z,86.9
2024-05-09T01:36:00.483Z,87.0
2024-05-09T01:37:00.464Z,87.3
2024-05-09T01:38:00.600Z,86.8
2024-05-09T01:39:00.511Z,86.5
2024-05-09T01:40:00.538Z,86.2
2024-05-09T01:41:00.553Z,86.0
2024-05-09T01:42:00.525Z,86.4
2024-05-09T01:43:00.488Z,87.0
2024-05-09T01:44:00.638Z,87.6
2024-05-09T01:45:00.496Z,87.8
2024-05-09T01:46:00.521Z,87.9
2024-05-09T01:47:00.564Z,88.2
2024-05-09T01:48:01.026Z,88.4
2024-05-09T01:49:00.525Z,88.3
2024-05-09T01:50:00.768Z,87.9
2024-05-09T01:51:00.667Z,87.4
2024-05-09T01:52:00.493Z,87.3
2024-05-09T01:53:00.515Z,87.2
2024-05-09T01:54:00.930Z,87.1
2024-05-09T01:55:03.530Z,87.3
2024-05-09T01:56:00.571Z,87.3
2024-05-09T01:57:00.535Z,87.0
2024-05-09T01:58:00.489Z,87.2
2024-05-09T01:59:00.538Z,86.8
2024-05-09T02:00:00.550Z,86.3
2024-05-09T02:01:00.579Z,86.0
2024-05-09T02:02:00.892Z,85.8
2024-05-09T02:03:00.849Z,85.1
2024-05-09T02:04:00.646Z,84.5
2024-05-09T02:05:00.697Z,83.9
2024-05-09T02:06:00.522Z,84.0
2024-05-09T02:07:01.055Z,84.7
2024-05-09T02:08:00.537Z,84.2
2024-05-09T02:09:00.499Z,84.0
2024-05-09T02:10:00.490Z,84.1
2024-05-09T02:11:00.703Z,84.0
2024-05-09T02:12:00.918Z,84.5
2024-05-09T02:13:00.514Z,84.4
2024-05-09T02:14:00.551Z,85.5
2024-05-09T02:15:00.516Z,85.5
2024-05-09T02:16:00.584Z,86.0
2024-05-09T02:17:00.529Z,86.7
2024-05-09T02:18:00.862Z,87.1
2024-05-09T02:19:00.536Z,87.3
2024-05-09T02:20:00.570Z,87.6
2024-05-09T02:21:00.754Z,87.8
2024-05-09T02:22:00.483Z,87.6
2024-05-09T02:23:00.510Z,87.0
2024-05-09T02:24:00.473Z,87.0
2024-05-09T02:25:00.490Z,86.4
2024-05-09T02:26:00.590Z,86.0
2024-05-09T02:27:00.566Z,84.9
2024-05-09T02:28:00.871Z,84.7
2024-05-09T02:29:00.708Z,84.9
2024-05-09T02:30:00.626Z,85.3
2024-05-09T02:31:00.488Z,84.9
2024-05-09T02:32:00.735Z,84.4
2024-05-09T02:33:00.838Z,83.9
2024-05-09T02:34:00.680Z,83.6
2024-05-09T02:35:00.579Z,83.3
2024-05-09T02:36:00.495Z,83.1
2024-05-09T02:37:00.478Z,83.0
2024-05-09T02:38:00.893Z,83.1
2024-05-09T02:39:00.616Z,82.8
2024-05-09T02:40:00.503Z,83.4
2024-05-09T02:41:00.539Z,84.3
2024-05-09T02:42:00.470Z,84.8
2024-05-09T02:43:00.481Z,84.9
2024-05-09T02:44:00.566Z,85.2
2024-05-09T02:45:00.511Z,85.1
2024-05-09T02:46:00.542Z,84.9
2024-05-09T02:47:00.493Z,84.5
2024-05-09T02:48:01.703Z,84.2
2024-05-09T02:49:00.604Z,84.3
2024-05-09T02:50:00.581Z,83.6
2024-05-09T02:51:00.883Z,83.4
2024-05-09T02:52:00.496Z,83.3
2024-05-09T02:53:00.594Z,84.1
2024-05-09T02:54:00.509Z,84.4
2024-05-09T02:55:00.488Z,84.4
2024-05-09T02:56:00.680Z,84.8
2024-05-09T02:57:00.547Z,84.9
2024-05-09T02:58:00.504Z,85.2
2024-05-09T02:59:00.655Z,85.7
2024-05-09T03:00:00.530Z,85.9
2024-05-09T03:01:00.740Z,85.7
2024-05-09T03:02:00.641Z,85.5
2024-05-09T03:03:00.885Z,85.4
2024-05-09T03:04:00.627Z,85.0
2024-05-09T03:05:00.498Z,84.4
2024-05-09T03:06:00.733Z,85.2
2024-05-09T03:07:00.479Z,85.1
2024-05-09T03:08:00.580Z,85.8
2024-05-09T03:09:00.474Z,86.3
2024-05-09T03:10:00.661Z,87.5
2024-05-09T03:11:00.636Z,87.9
2024-05-09T03:12:00.670Z,88.0
2024-05-09T03:13:04.317Z,88.2
2024-05-09T03:14:00.876Z,87.9
2024-05-09T03:15:00.508Z,87.4
2024-05-09T03:16:00.472Z,86.4
2024-05-09T03:17:00.682Z,85.5
2024-05-09T03:18:00.921Z,84.4
2024-05-09T03:19:00.551Z,83.6
2024-05-09T03:20:01.643Z,83.1
2024-05-09T03:21:00.686Z,82.7
2024-05-09T03:22:00.607Z,82.4
2024-05-09T03:23:00.623Z,82.1
2024-05-09T03:24:00.590Z,81.6
2024-05-09T03:25:00.580Z,81.2
2024-05-09T03:26:00.678Z,82.3
2024-05-09T03:27:00.521Z,83.0
2024-05-09T03:28:00.680Z,83.2
2024-05-09T03:29:00.717Z,83.9
2024-05-09T03:30:00.654Z,84.5
2024-05-09T03:31:00.519Z,84.4
2024-05-09T03:32:00.781Z,84.6
2024-05-09T03:33:00.753Z,84.3
2024-05-09T03:34:00.842Z,83.7
2024-05-09T03:35:00.678Z,83.1
2024-05-09T03:36:01.316Z,82.6
2024-05-09T03:37:00.654Z,82.5
2024-05-09T03:38:00.672Z,83.2
2024-05-09T03:39:00.465Z,84.0
2024-05-09T03:40:00.660Z,84.7
2024-05-09T03:41:00.713Z,85.2
2024-05-09T03:42:00.521Z,85.2
2024-05-09T03:43:00.596Z,84.8
2024-05-09T03:44:00.700Z,84.6
2024-05-09T03:45:00.525Z,84.8
2024-05-09T03:46:00.495Z,85.0
2024-05-09T03:47:00.535Z,84.9
2024-05-09T03:48:00.698Z,84.7
2024-05-09T03:49:00.619Z,84.5
2024-05-09T03:50:00.644Z,84.1
2024-05-09T03:51:00.646Z,83.7
2024-05-09T03:52:00.511Z,83.1
2024-05-09T03:53:01.270Z,83.3
2024-05-09T03:54:00.497Z,83.3
2024-05-09T03:55:00.657Z,83.2
2024-05-09T03:56:00.635Z,83.1
2024-05-09T03:57:00.851Z,83.3
2024-05-09T03:58:00.712Z,83.6
2024-05-09T03:59:00.524Z,83.6
2024-05-09T04:00:00.505Z,83.4
2024-05-09T04:01:00.580Z,83.4
2024-05-09T04:02:00.650Z,83.7
2024-05-09T04:03:00.852Z,83.8
2024-05-09T04:04:00.540Z,84.0
2024-05-09T04:05:00.563Z,84.1
2024-05-09T04:06:00.578Z,84.2
2024-05-09T04:07:00.482Z,84.3
2024-05-09T04:08:00.700Z,83.9
2024-05-09T04:09:00.548Z,83.5
2024-05-09T04:10:00.489Z,82.9
2024-05-09T04:11:00.562Z,82.2
2024-05-09T04:12:00.587Z,81.6
2024-05-09T04:13:00.714Z,81.1
2024-05-09T04:14:00.628Z,80.5
2024-05-09T04:15:00.501Z,80.5
2024-05-09T04:16:00.496Z,80.2
2024-05-09T04:17:00.574Z,80.1
2024-05-09T04:18:01.522Z,80.0
2024-05-09T04:19:00.614Z,80.2
2024-05-09T04:20:00.740Z,80.5
2024-05-09T04:21:02.083Z,80.5
2024-05-09T04:22:00.473Z,80.1
2024-05-09T04:23:00.528Z,79.1
2024-05-09T04:24:00.475Z,78.6
2024-05-09T04:25:00.546Z,77.7
2024-05-09T04:26:00.687Z,77.4
2024-05-09T04:27:00.514Z,78.7
2024-05-09T04:28:00.527Z,76.8
2024-05-09T04:29:00.513Z,76.2
2024-05-09T04:30:00.528Z,76.0
2024-05-09T04:31:00.480Z,75.2
2024-05-09T04:32:00.672Z,75.2
2024-05-09T04:33:01.528Z,75.4
2024-05-09T04:34:00.601Z,76.2
2024-05-09T04:35:00.484Z,76.4
2024-05-09T04:36:00.486Z,75.4
2024-05-09T04:37:00.989Z,75.9
2024-05-09T04:38:00.654Z,75.7
2024-05-09T04:39:00.574Z,74.5
2024-05-09T04:40:00.517Z,75.8
2024-05-09T04:41:00.583Z,72.9
2024-05-09T04:42:00.488Z,72.1
2024-05-09T04:43:00.502Z,72.1
2024-05-09T04:44:00.521Z,69.8
2024-05-09T04:45:00.486Z,69.6
2024-05-09T04:46:00.474Z,69.1
2024-05-09T04:47:00.539Z,69.4
2024-05-09T04:48:01.455Z,69.8
2024-05-09T04:49:00.853Z,68.1
2024-05-09T04:50:00.586Z,67.9
2024-05-09T04:51:00.733Z,69.8
2024-05-09T04:52:00.511Z,66.8
2024-05-09T04:53:00.585Z,67.3
2024-05-09T04:54:00.538Z,66.0
2024-05-09T04:55:00.477Z,65.8
2024-05-09T04:56:00.623Z,65.8
2024-05-09T04:57:00.470Z,65.7
2024-05-09T04:58:00.500Z,66.8
2024-05-09T04:59:00.599Z,66.2
2024-05-09T05:00:00.507Z,65.4
2024-05-09T05:01:00.597Z,66.6
2024-05-09T05:02:00.762Z,66.3
2024-05-09T05:03:00.719Z,69.4
2024-05-09T05:04:00.631Z,69.4
2024-05-09T05:05:00.617Z,67.8
2024-05-09T05:06:00.552Z,69.0
2024-05-09T05:07:02.840Z,69.1
2024-05-09T05:08:00.596Z,70.0
2024-05-09T05:09:00.473Z,68.6
2024-05-09T05:10:00.464Z,67.6
2024-05-09T05:11:00.674Z,67.2
2024-05-09T05:12:00.756Z,67.2
2024-05-09T05:13:00.502Z,68.0
2024-05-09T05:14:00.536Z,67.0
2024-05-09T05:15:00.488Z,66.8
2024-05-09T05:16:00.500Z,67.0
2024-05-09T05:17:00.541Z,66.6
2024-05-09T05:18:00.783Z,68.5
2024-05-09T05:19:00.538Z,68.6
2024-05-09T05:20:00.760Z,71.4
2024-05-09T05:21:00.532Z,71.6
2024-05-09T05:22:00.487Z,72.2
2024-05-09T05:23:00.826Z,71.1
2024-05-09T05:24:00.507Z,70.6
2024-05-09T05:25:00.523Z,69.0
2024-05-09T05:26:00.693Z,66.2
2024-05-09T05:27:00.463Z,66.3
2024-05-09T05:28:00.476Z,67.0
2024-05-09T05:29:00.547Z,63.4
2024-05-09T05:30:00.532Z,62.2
2024-05-09T05:31:00.505Z,64.3
2024-05-09T05:32:00.684Z,66.0
2024-05-09T05:33:01.028Z,65.9
2024-05-09T05:34:00.705Z,66.8
2024-05-09T05:35:00.719Z,68.5
2024-05-09T05:36:00.513Z,66.4
2024-05-09T05:37:00.518Z,65.3
2024-05-09T05:38:00.754Z,62.7
2024-05-09T05:39:00.472Z,62.3
2024-05-09T05:40:00.516Z,63.7
2024-05-09T05:41:00.548Z,64.8
2024-05-09T05:42:00.484Z,64.3
2024-05-09T05:43:00.482Z,64.3
2024-05-09T05:44:00.559Z,64.3
2024-05-09T05:45:00.580Z,62.8
2024-05-09T05:46:00.502Z,63.5
2024-05-09T05:47:00.521Z,62.9
2024-05-09T05:48:02.188Z,62.0
2024-05-09T05:49:00.559Z,61.3
2024-05-09T05:50:00.709Z,61.7
2024-05-09T05:51:03.861Z,64.6
2024-05-09T05:52:00.476Z,64.2
2024-05-09T05:53:00.709Z,62.8
2024-05-09T05:54:00.515Z,64.7
2024-05-09T05:55:00.463Z,64.9
2024-05-09T05:56:00.593Z,65.5
2024-05-09T05:57:00.469Z,66.9
2024-05-09T05:58:01.155Z,64.6
2024-05-09T05:59:00.572Z,65.6
2024-05-09T06:00:00.495Z,64.2
2024-05-09T06:01:00.570Z,62.7
2024-05-09T06:02:00.545Z,62.5
2024-05-09T06:03:00.679Z,63.3
2024-05-09T06:04:00.769Z,62.5
2024-05-09T06:05:01.093Z,60.4
2024-05-09T06:06:01.477Z,61.8
2024-05-09T06:07:00.526Z,63.3
2024-05-09T06:08:00.806Z,64.7
2024-05-09T06:09:00.507Z,64.1
2024-05-09T06:10:00.614Z,64.4
2024-05-09T06:11:01.543Z,63.9
2024-05-09T06:12:00.661Z,63.1
2024-05-09T06:13:00.581Z,62.0
2024-05-09T06:14:00.651Z,61.5
2024-05-09T06:15:00.614Z,62.4
2024-05-09T06:16:00.618Z,60.6
2024-05-09T06:17:00.576Z,60.7
2024-05-09T06:18:01.225Z,62.3
2024-05-09T06:19:00.715Z,61.4
2024-05-09T06:20:00.765Z,62.6
2024-05-09T06:21:00.712Z,62.5
2024-05-09T06:22:00.663Z,62.6
2024-05-09T06:23:00.796Z,61.4
2024-05-09T06:24:02.604Z,63.6
2024-05-09T06:25:00.638Z,63.8
2024-05-09T06:26:00.743Z,63.0
2024-05-09T06:27:00.656Z,62.7
2024-05-09T06:28:00.761Z,61.3
2024-05-09T06:29:00.737Z,61.6
2024-05-09T06:30:00.688Z,59.8
2024-05-09T06:31:00.967Z,60.6
2024-05-09T06:32:00.803Z,63.5
2024-05-09T06:33:00.787Z,62.5
2024-05-09T06:34:00.658Z,62.1
2024-05-09T06:35:00.638Z,61.7
2024-05-09T06:36:00.690Z,60.1
2024-05-09T06:37:00.518Z,59.7
2024-05-09T06:38:00.600Z,58.1
2024-05-09T06:39:00.542Z,58.0
2024-05-09T06:40:00.495Z,58.5
2024-05-09T06:41:00.759Z,61.7
2024-05-09T06:42:00.500Z,60.4
2024-05-09T06:43:00.472Z,60.4
2024-05-09T06:44:00.637Z,60.2
2024-05-09T06:45:00.636Z,62.0
2024-05-09T06:46:00.513Z,61.8
2024-05-09T06:47:00.789Z,62.1
2024-05-09T06:48:00.968Z,59.8
2024-05-09T06:49:00.699Z,60.0
2024-05-09T06:50:00.707Z,59.9
2024-05-09T06:51:00.971Z,59.6
2024-05-09T06:52:00.539Z,59.7
2024-05-09T06:53:00.786Z,58.6
2024-05-09T06:54:00.611Z,59.9
2024-05-09T06:55:00.553Z,55.9
2024-05-09T06:56:01.741Z,55.9
2024-05-09T06:57:00.574Z,57.6
2024-05-09T06:58:00.641Z,56.8
2024-05-09T06:59:01.248Z,55.2
2024-05-09T07:00:00.675Z,55.3
2024-05-09T07:01:00.820Z,55.9
2024-05-09T07:02:01.277Z,57.3
2024-05-09T07:03:05.603Z,57.5
2024-05-09T07:04:00.761Z,57.8
2024-05-09T07:05:00.943Z,55.3
2024-05-09T07:06:00.923Z,54.1
2024-05-09T07:07:02.077Z,54.2
2024-05-09T07:08:00.980Z,53.1
2024-05-09T07:09:00.677Z,53.1
2024-05-09T07:10:00.684Z,56.2
2024-05-09T07:11:00.780Z,53.5
2024-05-09T07:12:00.807Z,54.5
2024-05-09T07:13:00.704Z,55.0
2024-05-09T07:14:00.749Z,55.1
2024-05-09T07:15:00.647Z,56.2
2024-05-09T07:16:00.695Z,56.8
2024-05-09T07:17:00.858Z,56.3
2024-05-09T07:18:06.416Z,58.2
2024-05-09T07:19:00.851Z,58.1
2024-05-09T07:20:00.854Z,57.1
2024-05-09T07:21:00.863Z,56.0
2024-05-09T07:22:00.667Z,54.9
2024-05-09T07:23:02.002Z,55.0
2024-05-09T07:24:00.930Z,55.1
2024-05-09T07:25:00.850Z,55.2
2024-05-09T07:26:01.284Z,55.5
2024-05-09T07:27:00.529Z,56.2
2024-05-09T07:28:00.630Z,55.5
2024-05-09T07:29:00.886Z,54.0
2024-05-09T07:30:00.579Z,53.5
2024-05-09T07:31:00.461Z,53.6
2024-05-09T07:32:00.781Z,53.9
2024-05-09T07:33:01.838Z,53.2
2024-05-09T07:34:00.872Z,53.9
2024-05-09T07:35:00.741Z,53.3
2024-05-09T07:36:00.565Z,52.4
2024-05-09T07:37:00.676Z,50.9
2024-05-09T07:38:00.582Z,51.6
2024-05-09T07:39:00.551Z,49.7
2024-05-09T07:40:00.597Z,52.4
2024-05-09T07:41:00.766Z,47.8
2024-05-09T07:42:00.467Z,47.5
2024-05-09T07:43:01.851Z,51.7
2024-05-09T07:44:00.601Z,51.5
2024-05-09T07:45:20.559Z,53.4
2024-05-09T07:46:45.435Z,51.5
2024-05-09T07:50:35.950Z,48.6
2024-05-09T07:51:47.607Z,49.1
2024-05-09T07:53:07.516Z,51.9
2024-05-09T07:53:25.275Z,50.6
2024-05-09T07:53:36.027Z,51.3
2024-05-09T07:54:01.484Z,52.7
2024-05-09T07:55:00.892Z,51.6
2024-05-09T07:56:00.686Z,51.7
2024-05-09T07:57:00.666Z,53.0
2024-05-09T07:58:00.530Z,51.7
2024-05-09T07:59:00.489Z,52.4
2024-05-09T08:00:00.541Z,51.6
2024-05-09T08:01:00.720Z,51.4
2024-05-09T08:02:00.855Z,52.0
2024-05-09T08:03:00.508Z,53.2
2024-05-09T08:04:00.729Z,50.1
2024-05-09T08:05:00.737Z,52.1
2024-05-09T08:06:00.470Z,51.5
2024-05-09T08:07:00.492Z,51.1
2024-05-09T08:08:00.534Z,51.2
2024-05-09T08:09:05.323Z,50.7
2024-05-09T08:10:00.594Z,49.8
2024-05-09T08:11:00.940Z,49.8
2024-05-09T08:12:00.487Z,52.1
2024-05-09T08:13:00.530Z,50.4
2024-05-09T08:14:00.477Z,53.4
2024-05-09T08:15:00.517Z,53.5
2024-05-09T08:16:00.880Z,55.7
2024-05-09T08:17:00.571Z,53.0
2024-05-09T08:18:00.840Z,53.7
2024-05-09T08:19:00.749Z,53.2
2024-05-09T08:20:02.012Z,53.9
2024-05-09T08:21:00.462Z,51.1
2024-05-09T08:22:00.558Z,54.3
2024-05-09T08:23:00.479Z,52.4
2024-05-09T08:24:00.534Z,50.7
2024-05-09T08:25:00.776Z,51.1
2024-05-09T08:26:00.489Z,51.9
2024-05-09T08:27:00.731Z,51.6
2024-05-09T08:28:02.463Z,51.0
2024-05-09T08:29:00.593Z,50.8
2024-05-09T08:30:00.638Z,51.4
2024-05-09T08:31:03.190Z,49.7
2024-05-09T08:32:00.638Z,51.5
2024-05-09T08:33:00.566Z,53.2
2024-05-09T08:34:00.761Z,51.8
2024-05-09T08:35:00.555Z,51.1
2024-05-09T08:36:00.466Z,51.6
2024-05-09T08:37:06.132Z,49.1
2024-05-09T08:38:01.455Z,49.0
2024-05-09T08:39:00.519Z,50.0
2024-05-09T08:40:00.681Z,50.5
2024-05-09T08:41:02.498Z,50.7
2024-05-09T08:42:00.710Z,50.1
2024-05-09T08:43:01.308Z,49.5
2024-05-09T08:44:01.325Z,50.2
2024-05-09T08:45:00.631Z,48.6
2024-05-09T08:46:01.017Z,48.9
2024-05-09T08:47:01.608Z,51.5
2024-05-09T08:48:01.382Z,50.5
2024-05-09T08:49:01.793Z,50.1
2024-05-09T08:50:01.896Z,50.0
2024-05-09T08:51:00.508Z,48.9
2024-05-09T08:52:00.706Z,47.5
2024-05-09T08:53:00.520Z,50.6
2024-05-09T08:54:00.522Z,50.9
2024-05-09T08:55:00.602Z,51.2
2024-05-09T08:56:01.002Z,54.2
2024-05-09T08:57:01.219Z,52.2
2024-05-09T08:58:02.376Z,51.3
2024-05-09T08:59:00.874Z,51.1
2024-05-09T09:00:04.851Z,49.4
2024-05-09T09:01:01.259Z,48.9
2024-05-09T09:02:01.569Z,46.7
2024-05-09T09:03:01.585Z,46.8
2024-05-09T09:04:01.492Z,47.6
2024-05-09T09:05:04.832Z,47.7
2024-05-09T09:06:01.544Z,48.1
2024-05-09T09:07:02.330Z,50.5
2024-05-09T09:08:03.348Z,49.2
2024-05-09T09:09:02.102Z,49.2
2024-05-09T09:10:01.658Z,49.8
2024-05-09T09:11:00.590Z,50.5
2024-05-09T09:12:00.560Z,51.9
2024-05-09T09:13:00.858Z,51.4
2024-05-09T09:14:00.499Z,47.2
2024-05-09T09:15:00.518Z,48.0
2024-05-09T09:16:00.785Z,49.2
2024-05-09T09:17:10.473Z,49.5
2024-05-09T09:18:01.264Z,50.5
2024-05-09T09:19:00.598Z,49.4
2024-05-09T09:20:00.816Z,48.9
2024-05-09T09:21:00.516Z,49.6
2024-05-09T09:22:00.594Z,47.2
2024-05-09T09:23:00.466Z,46.3
2024-05-09T09:24:00.489Z,48.6
2024-05-09T09:25:00.568Z,48.7
2024-05-09T09:26:00.561Z,47.1
2024-05-09T09:27:00.467Z,47.4
2024-05-09T09:28:00.583Z,47.7
2024-05-09T09:29:00.826Z,46.7
2024-05-09T09:30:00.568Z,46.6
2024-05-09T09:31:00.860Z,49.7
2024-05-09T09:32:00.824Z,50.7
2024-05-09T09:33:00.645Z,47.3
2024-05-09T09:34:04.755Z,48.7
2024-05-09T09:35:00.725Z,47.4
2024-05-09T09:36:01.670Z,45.6
2024-05-09T09:37:03.028Z,46.1
2024-05-09T09:38:01.202Z,46.0
2024-05-09T09:39:01.371Z,49.0
2024-05-09T09:40:01.685Z,46.7
2024-05-09T09:41:04.111Z,49.8
2024-05-09T09:42:01.521Z,51.4
2024-05-09T09:43:00.737Z,52.6
2024-05-09T09:44:01.567Z,52.0
2024-05-09T09:45:05.142Z,49.8
2024-05-09T09:46:00.627Z,50.2
2024-05-09T09:47:01.544Z,48.8
2024-05-09T09:48:00.769Z,49.2
2024-05-09T09:49:01.054Z,49.4
2024-05-09T09:50:00.897Z,49.2
2024-05-09T09:51:01.019Z,48.9
2024-05-09T09:52:00.684Z,47.4
2024-05-09T09:53:01.298Z,48.2
2024-05-09T09:54:02.542Z,48.9
2024-05-09T09:55:01.680Z,50.0
2024-05-09T09:56:00.906Z,48.6
2024-05-09T09:57:03.153Z,47.7
2024-05-09T09:58:02.448Z,47.2
2024-05-09T09:59:01.615Z,46.3
2024-05-09T10:00:00.527Z,46.8
2024-05-09T10:01:00.778Z,46.8
2024-05-09T10:02:00.712Z,47.7
2024-05-09T10:03:01.254Z,48.5
2024-05-09T10:04:01.147Z,47.6
2024-05-09T10:05:00.704Z,50.3
2024-05-09T10:06:00.828Z,50.8
2024-05-09T10:07:02.026Z,51.6
2024-05-09T10:08:02.890Z,50.1
2024-05-09T10:09:00.656Z,48.9
2024-05-09T10:10:00.644Z,49.1
2024-05-09T10:11:02.292Z,48.3
2024-05-09T10:12:19.504Z,48.4
2024-05-09T10:13:02.380Z,51.0
2024-05-09T10:14:00.708Z,50.0
2024-05-09T10:15:08.389Z,46.2
2024-05-09T10:16:06.186Z,45.5
2024-05-09T10:17:03.844Z,47.2
2024-05-09T10:18:04.120Z,46.9
2024-05-09T10:19:00.946Z,46.9
2024-05-09T10:20:14.837Z,46.3
2024-05-09T10:21:00.508Z,48.1
2024-05-09T10:22:01.151Z,46.5
2024-05-09T10:23:01.560Z,48.9
2024-05-09T10:24:02.203Z,49.0
2024-05-09T10:25:05.281Z,48.9
2024-05-09T10:26:01.277Z,48.8
2024-05-09T10:27:02.675Z,47.2
2024-05-09T10:28:00.563Z,45.8
2024-05-09T10:29:16.801Z,44.3
2024-05-09T10:30:01.590Z,44.5
2024-05-09T10:32:00.768Z,43.9
2024-05-09T10:33:00.627Z,44.8
2024-05-09T10:34:00.902Z,42.6
2024-05-09T10:35:09.034Z,44.5
2024-05-09T10:36:02.112Z,44.7
2024-05-09T10:37:02.838Z,43.0
2024-05-09T10:38:04.416Z,44.6
2024-05-09T10:39:00.601Z,44.1
2024-05-09T10:40:00.715Z,46.8
2024-05-09T10:41:01.121Z,47.3
2024-05-09T10:42:00.735Z,45.2
2024-05-09T10:43:04.707Z,43.3
2024-05-09T10:44:00.722Z,44.7
2024-05-09T10:45:00.901Z,44.7
2024-05-09T10:46:00.878Z,45.4
2024-05-09T10:47:00.784Z,44.1
2024-05-09T10:48:00.866Z,42.2
2024-05-09T10:49:04.262Z,42.8
2024-05-09T10:50:01.448Z,44.5
2024-05-09T10:51:00.640Z,44.2
2024-05-09T10:52:02.372Z,47.2
2024-05-09T10:53:01.258Z,42.9
2024-05-09T10:54:00.774Z,41.3
2024-05-09T10:55:02.303Z,43.4
2024-05-09T10:56:00.787Z,42.1
2024-05-09T10:57:00.670Z,40.4
2024-05-09T10:58:00.763Z,43.1
2024-05-09T10:59:03.740Z,42.4
2024-05-09T11:00:00.669Z,44.9
2024-05-09T11:01:04.348Z,42.9
2024-05-09T11:02:02.529Z,44.2
2024-05-09T11:03:00.638Z,45.8
2024-05-09T11:04:00.906Z,47.4
2024-05-09T11:05:00.754Z,46.6
2024-05-09T11:06:00.738Z,45.2
2024-05-09T11:07:05.438Z,45.7
2024-05-09T11:08:00.687Z,43.9
2024-05-09T11:09:00.558Z,44.4
2024-05-09T11:10:00.685Z,45.5
2024-05-09T11:11:01.559Z,46.4
2024-05-09T11:12:01.379Z,44.3
2024-05-09T11:13:00.681Z,44.3
2024-05-09T11:14:10.159Z,49.5
2024-05-09T11:15:00.486Z,47.2
2024-05-09T11:16:01.243Z,46.7
2024-05-09T11:17:01.329Z,46.1
2024-05-09T11:18:00.628Z,44.8
2024-05-09T11:19:00.820Z,43.5
2024-05-09T11:20:00.708Z,44.0
2024-05-09T11:21:00.607Z,44.4
2024-05-09T11:22:00.555Z,44.4
2024-05-09T11:23:07.640Z,42.6
2024-05-09T11:24:00.515Z,43.5
2024-05-09T11:25:00.623Z,44.7
2024-05-09T11:26:00.710Z,44.0
2024-05-09T11:27:01.626Z,46.0
2024-05-09T11:28:00.881Z,43.2
2024-05-09T11:29:00.457Z,43.7
2024-05-09T11:30:00.516Z,43.1
2024-05-09T11:31:04.325Z,44.0
2024-05-09T11:32:00.532Z,43.4
2024-05-09T11:33:00.756Z,43.8
2024-05-09T11:34:00.550Z,45.1
2024-05-09T11:35:00.492Z,42.4
2024-05-09T11:36:00.584Z,43.2
2024-05-09T11:37:00.678Z,41.7
2024-05-09T11:38:00.524Z,41.8
2024-05-09T11:39:00.511Z,42.9
2024-05-09T11:40:00.624Z,47.8
2024-05-09T11:41:00.828Z,46.2
2024-05-09T11:42:00.483Z,46.6
2024-05-09T11:43:00.588Z,47.0
2024-05-09T11:44:00.625Z,46.5
2024-05-09T11:45:00.507Z,44.8
2024-05-09T11:46:01.318Z,43.9
2024-05-09T11:47:01.248Z,46.4
2024-05-09T11:48:00.774Z,44.2
2024-05-09T11:49:00.783Z,45.0
2024-05-09T11:50:00.691Z,44.8
2024-05-09T11:51:00.478Z,44.8
2024-05-09T11:52:00.709Z,44.1
2024-05-09T11:53:00.482Z,48.2
2024-05-09T11:54:00.578Z,46.0
2024-05-09T11:55:00.513Z,45.4
2024-05-09T11:56:00.512Z,45.5
2024-05-09T11:57:00.558Z,46.1
2024-05-09T11:58:02.076Z,44.5
2024-05-09T11:59:00.676Z,45.1
2024-05-09T12:00:00.526Z,45.5
2024-05-09T12:01:00.636Z,46.8
2024-05-09T12:02:00.678Z,47.1
2024-05-09T12:03:00.576Z,44.2
2024-05-09T12:04:01.153Z,44.5
2024-05-09T12:05:00.653Z,45.4
2024-05-09T12:06:00.745Z,44.5
2024-05-09T12:07:00.581Z,47.8
2024-05-09T12:08:00.988Z,47.9
2024-05-09T12:09:00.509Z,48.2
2024-05-09T12:10:00.683Z,48.3
2024-05-09T12:11:00.874Z,47.6
2024-05-09T12:12:00.503Z,47.7
2024-05-09T12:13:00.595Z,42.2
2024-05-09T12:14:00.485Z,43.5
2024-05-09T12:15:00.509Z,43.8
2024-05-09T12:16:00.588Z,44.1
2024-05-09T12:17:00.620Z,43.5
2024-05-09T12:18:03.582Z,44.4
2024-05-09T12:19:00.798Z,40.7
2024-05-09T12:20:00.522Z,41.2
2024-05-09T12:21:00.796Z,43.1
2024-05-09T12:22:00.523Z,43.7
2024-05-09T12:23:00.477Z,40.3
2024-05-09T12:24:00.465Z,42.2
2024-05-09T12:25:00.532Z,40.9
2024-05-09T12:26:00.552Z,40.8
2024-05-09T12:27:00.539Z,44.3
2024-05-09T12:28:01.059Z,44.9
2024-05-09T12:29:00.478Z,45.7
2024-05-09T12:30:00.517Z,44.2
2024-05-09T12:31:00.536Z,43.4
2024-05-09T12:32:00.517Z,46.3
2024-05-09T12:33:00.563Z,44.4
2024-05-09T12:34:00.737Z,43.7
2024-05-09T12:35:00.507Z,47.0
2024-05-09T12:36:00.654Z,44.8
2024-05-09T12:37:00.697Z,46.1
2024-05-09T12:38:00.828Z,48.8
2024-05-09T12:39:00.984Z,44.8
2024-05-09T12:40:00.572Z,44.7
2024-05-09T12:41:00.586Z,44.9
2024-05-09T12:42:00.511Z,44.1
2024-05-09T12:43:00.566Z,43.6
2024-05-09T12:44:00.568Z,43.1
2024-05-09T12:45:00.476Z,45.9
2024-05-09T12:46:00.719Z,46.4
2024-05-09T12:47:00.502Z,47.1
2024-05-09T12:48:01.023Z,45.9
2024-05-09T12:49:01.133Z,44.6
2024-05-09T12:50:00.901Z,41.9
2024-05-09T12:51:00.559Z,42.7
2024-05-09T12:52:00.781Z,40.3
2024-05-09T12:53:01.064Z,38.7
2024-05-09T12:54:00.666Z,40.0
2024-05-09T12:55:00.793Z,42.3
2024-05-09T12:56:02.980Z,43.6
2024-05-09T12:57:00.679Z,45.3
2024-05-09T12:58:01.160Z,44.1
2024-05-09T12:59:00.661Z,43.7
2024-05-09T13:00:00.585Z,45.1
2024-05-09T13:01:00.702Z,43.9
2024-05-09T13:02:01.292Z,43.9
2024-05-09T13:03:01.333Z,42.2
2024-05-09T13:04:00.990Z,44.8
2024-05-09T13:05:00.872Z,43.4
2024-05-09T13:06:00.670Z,41.5
2024-05-09T13:07:00.773Z,41.6
2024-05-09T13:08:02.589Z,42.2
2024-05-09T13:09:00.774Z,42.1
2024-05-09T13:10:00.856Z,43.1
2024-05-09T13:11:00.828Z,44.8
2024-05-09T13:12:00.687Z,45.0
2024-05-09T13:13:01.639Z,44.3
2024-05-09T13:14:00.719Z,43.9
2024-05-09T13:15:00.670Z,43.5
2024-05-09T13:16:00.772Z,44.4
2024-05-09T13:17:00.724Z,43.5
2024-05-09T13:18:03.276Z,42.7
2024-05-09T13:19:00.681Z,41.7
2024-05-09T13:20:00.599Z,42.6
2024-05-09T13:21:00.809Z,44.1